createdAt,value
2023-04-18T00:00:26.934Z,101269.19
2023-04-18T00:09:33.267Z,101265.09
2023-04-18T00:11:59.806Z,101271.28
2023-04-18T00:14:26.130Z,101263.06
2023-04-18T00:16:54.090Z,101268.41
2023-04-18T00:19:20.454Z,101258.69
2023-04-18T00:21:46.937Z,101258.69
2023-04-18T00:24:13.668Z,101257.94
2023-04-18T00:26:40.239Z,101262.53
2023-04-18T00:29:06.666Z,101244.06
2023-04-18T00:31:33.039Z,101255.94
2023-04-18T00:33:59.396Z,101256.44
2023-04-18T00:36:26.929Z,101250.16
2023-04-18T00:38:53.368Z,101256.44
2023-04-18T00:41:21.667Z,101253.09
2023-04-18T00:43:48.034Z,101258.03
2023-04-18T00:46:14.486Z,101251.66
2023-04-18T00:48:41.269Z,101247.56
2023-04-18T00:51:09.760Z,101252.50
2023-04-18T00:53:36.667Z,101246.31
2023-04-18T00:56:04.326Z,101244.50
2023-04-18T00:58:32.286Z,101253.28
2023-04-18T01:00:58.589Z,101245.16
2023-04-18T01:03:28.225Z,101251.25
2023-04-18T01:05:55.376Z,101245.81
2023-04-18T01:08:22.067Z,101252.75
2023-04-18T01:10:49.456Z,101251.72
2023-04-18T01:13:17.854Z,101248.94
2023-04-18T01:15:48.666Z,101250.66
2023-04-18T01:18:19.031Z,101238.00
2023-04-18T01:20:49.699Z,101235.34
2023-04-18T01:23:17.564Z,101229.91
2023-04-18T01:25:45.310Z,101233.31
2023-04-18T01:28:13.554Z,101232.34
2023-04-18T01:30:40.745Z,101242.84
2023-04-18T01:33:07.187Z,101230.53
2023-04-18T01:35:34.257Z,101228.66
2023-04-18T01:38:01.086Z,101218.63
2023-04-18T01:40:27.545Z,101213.03
2023-04-18T01:42:53.957Z,101221.50
2023-04-18T01:45:20.406Z,101222.25
2023-04-18T01:47:47.187Z,101222.47
2023-04-18T01:50:14.277Z,101218.16
2023-04-18T01:52:41.294Z,101224.84
2023-04-18T01:55:08.224Z,101223.56
2023-04-18T01:57:36.657Z,101226.50
2023-04-18T02:00:07.611Z,101223.34
2023-04-18T02:02:34.187Z,101224.16
2023-04-18T02:05:01.070Z,101223.03
2023-04-18T02:07:27.640Z,101225.13
2023-04-18T02:09:54.046Z,101227.13
2023-04-18T02:12:20.976Z,101226.19
2023-04-18T02:14:51.608Z,101218.44
2023-04-18T02:17:18.433Z,101227.50
2023-04-18T02:19:44.820Z,101228.63
2023-04-18T02:22:11.141Z,101218.16
2023-04-18T02:24:37.505Z,101230.16
2023-04-18T02:27:03.839Z,101226.75
2023-04-18T02:29:30.581Z,101223.44
2023-04-18T02:31:58.211Z,101221.41
2023-04-18T02:34:24.506Z,101221.78
2023-04-18T02:36:50.885Z,101227.47
2023-04-18T02:39:17.244Z,101222.91
2023-04-18T02:41:43.622Z,101225.47
2023-04-18T02:44:10.197Z,101219.84
2023-04-18T02:46:36.538Z,101228.25
2023-04-18T02:49:03.372Z,101224.78
2023-04-18T02:51:29.711Z,101226.50
2023-04-18T02:53:56.130Z,101229.25
2023-04-18T02:56:22.497Z,101236.84
2023-04-18T02:58:49.113Z,101230.09
2023-04-18T03:01:17.883Z,101233.00
2023-04-18T03:03:44.356Z,101235.16
2023-04-18T03:06:10.713Z,101238.66
2023-04-18T03:08:37.057Z,101243.56
2023-04-18T03:11:03.434Z,101248.63
2023-04-18T03:13:29.734Z,101236.44
2023-04-18T03:15:56.272Z,101236.13
2023-04-18T03:18:23.938Z,101241.19
2023-04-18T03:20:50.398Z,101246.59
2023-04-18T03:23:16.730Z,101250.97
2023-04-18T03:25:43.211Z,101255.16
2023-04-18T03:28:09.603Z,101249.94
2023-04-18T03:30:35.978Z,101249.31
2023-04-18T03:33:02.706Z,101247.09
2023-04-18T03:35:29.309Z,101246.41
2023-04-18T03:37:55.716Z,101252.06
2023-04-18T03:40:22.332Z,101244.34
2023-04-18T03:42:48.694Z,101251.91
2023-04-18T03:45:15.620Z,101250.78
2023-04-18T03:47:41.915Z,101246.00
2023-04-18T03:50:08.676Z,101246.66
2023-04-18T03:52:35.067Z,101243.84
2023-04-18T03:55:01.557Z,101248.66
2023-04-18T03:57:27.931Z,101235.16
2023-04-18T03:59:54.288Z,101245.72
2023-04-18T04:02:20.918Z,101243.97
2023-04-18T04:04:47.452Z,101243.31
2023-04-18T04:07:13.886Z,101239.47
2023-04-18T04:09:40.282Z,101244.38
2023-04-18T04:12:06.732Z,101243.25
2023-04-18T04:14:33.399Z,101247.53
2023-04-18T04:16:59.981Z,101236.13
2023-04-18T04:19:26.322Z,101248.56
2023-04-18T04:21:52.708Z,101249.41
2023-04-18T04:24:20.397Z,101258.44
2023-04-18T04:26:48.690Z,101249.06
2023-04-18T04:29:16.239Z,101255.84
2023-04-18T04:31:42.732Z,101255.75
2023-04-18T04:34:09.112Z,101255.84
2023-04-18T04:36:35.601Z,101251.53
2023-04-18T04:39:04.123Z,101258.16
2023-04-18T04:41:31.515Z,101256.25
2023-04-18T04:43:59.464Z,101253.00
2023-04-18T04:46:29.302Z,101246.75
2023-04-18T04:48:55.784Z,101248.44
2023-04-18T04:51:22.175Z,101256.19
2023-04-18T04:53:48.579Z,101244.44
2023-04-18T04:56:15.017Z,101248.63
2023-04-18T04:58:41.356Z,101259.09
2023-04-18T05:01:08.950Z,101259.63
2023-04-18T05:03:36.478Z,101256.44
2023-04-18T05:06:03.033Z,101256.38
2023-04-18T05:08:29.348Z,101256.47
2023-04-18T05:10:55.695Z,101261.34
2023-04-18T05:13:22.106Z,101258.88
2023-04-18T05:15:48.511Z,101255.69
2023-04-18T05:18:14.950Z,101266.16
2023-04-18T05:20:41.269Z,101260.66
2023-04-18T05:23:07.605Z,101270.00
2023-04-18T05:25:33.993Z,101274.47
2023-04-18T05:28:01.102Z,101262.28
2023-04-18T05:30:27.523Z,101276.78
2023-04-18T05:32:53.852Z,101273.16
2023-04-18T05:35:20.347Z,101282.44
2023-04-18T05:37:46.716Z,101274.66
2023-04-18T05:40:13.907Z,101275.00
2023-04-18T05:42:40.328Z,101278.28
2023-04-18T05:45:07.340Z,101277.81
2023-04-18T05:47:33.795Z,101284.97
2023-04-18T05:50:00.296Z,101283.16
2023-04-18T05:52:27.211Z,101277.94
2023-04-18T05:54:53.533Z,101281.25
2023-04-18T05:57:19.848Z,101281.75
2023-04-18T05:59:46.165Z,101288.59
2023-04-18T06:02:15.474Z,101281.47
2023-04-18T06:04:42.985Z,101291.00
2023-04-18T06:07:09.959Z,101294.22
2023-04-18T06:09:36.483Z,101295.09
2023-04-18T06:12:02.945Z,101299.31
2023-04-18T06:14:29.416Z,101307.97
2023-04-18T06:16:55.829Z,101313.13
2023-04-18T06:19:22.192Z,101306.00
2023-04-18T06:21:49.053Z,101300.59
2023-04-18T06:24:15.857Z,101305.53
2023-04-18T06:26:42.548Z,101321.06
2023-04-18T06:29:08.845Z,101314.19
2023-04-18T06:31:35.368Z,101317.84
2023-04-18T06:34:01.751Z,101312.69
2023-04-18T06:36:28.222Z,101310.66
2023-04-18T06:38:54.705Z,101316.94
2023-04-18T06:41:21.025Z,101313.69
2023-04-18T06:44:02.073Z,101323.53
2023-04-18T06:46:29.969Z,101323.53
2023-04-18T06:48:56.516Z,101328.97
2023-04-18T06:51:22.883Z,101335.25
2023-04-18T06:53:52.551Z,101323.94
2023-04-18T06:56:20.431Z,101339.75
2023-04-18T06:58:47.474Z,101333.44
2023-04-18T07:01:13.883Z,101340.22
2023-04-18T07:06:31.199Z,101344.50
2023-04-18T07:09:00.794Z,101344.28
2023-04-18T07:11:28.210Z,101342.56
2023-04-18T07:13:54.557Z,101345.13
2023-04-18T07:16:21.185Z,101340.38
2023-04-18T07:18:47.705Z,101342.69
2023-04-18T07:21:14.083Z,101336.97
2023-04-18T07:23:40.514Z,101346.59
2023-04-18T07:26:07.069Z,101346.78
2023-04-18T07:28:33.380Z,101349.88
2023-04-18T07:31:01.280Z,101334.81
2023-04-18T07:33:31.509Z,101343.41
2023-04-18T07:35:57.989Z,101346.81
2023-04-18T07:38:24.398Z,101343.94
2023-04-18T07:41:01.258Z,101332.19
2023-04-18T07:43:27.845Z,101340.09
2023-04-18T07:45:54.309Z,101336.47
2023-04-18T07:48:25.225Z,101339.28
2023-04-18T07:50:51.554Z,101340.06
2023-04-18T07:53:17.876Z,101344.78
2023-04-18T07:55:45.229Z,101344.78
2023-04-18T07:58:11.606Z,101362.25
2023-04-18T08:00:42.679Z,101352.97
2023-04-18T08:03:13.431Z,101353.94
2023-04-18T08:05:41.228Z,101364.00
2023-04-18T08:08:09.145Z,101359.72
2023-04-18T08:10:36.192Z,101358.66
2023-04-18T08:13:03.741Z,101360.81
2023-04-18T08:15:32.274Z,101365.06
2023-04-18T08:17:59.850Z,101355.56
2023-04-18T08:20:26.519Z,101362.44
2023-04-18T08:23:06.158Z,101366.91
2023-04-18T08:25:36.105Z,101367.78
2023-04-18T08:28:02.443Z,101356.19
2023-04-18T08:30:28.861Z,101369.56
2023-04-18T08:32:55.190Z,101370.97
2023-04-18T08:35:21.587Z,101366.47
2023-04-18T08:37:47.995Z,101367.88
2023-04-18T08:40:14.439Z,101367.66
2023-04-18T08:42:45.007Z,101364.78
2023-04-18T08:45:14.080Z,101366.50
2023-04-18T08:47:43.513Z,101360.94
2023-04-18T08:50:10.565Z,101355.34
2023-04-18T08:52:39.479Z,101365.66
2023-04-18T08:55:06.468Z,101369.38
2023-04-18T08:57:33.428Z,101369.03
2023-04-18T09:00:01.512Z,101368.78
2023-04-18T09:02:42.287Z,101369.16
2023-04-18T09:05:13.705Z,101369.69
2023-04-18T09:07:40.953Z,101374.81
2023-04-18T09:10:07.826Z,101379.75
2023-04-18T09:12:42.405Z,101377.19
2023-04-18T09:15:10.080Z,101367.31
2023-04-18T09:17:46.766Z,101369.38
2023-04-18T09:20:15.541Z,101358.81
2023-04-18T09:22:51.228Z,101352.50
2023-04-18T09:25:38.415Z,101360.81
2023-04-18T09:28:29.327Z,101351.84
2023-04-18T09:30:57.506Z,101350.31
2023-04-18T09:33:34.542Z,101349.22
2023-04-18T09:36:17.885Z,101352.59
2023-04-18T09:38:44.588Z,101333.22
2023-04-18T09:41:12.754Z,101349.97
2023-04-18T09:43:39.290Z,101344.94
2023-04-18T09:46:07.530Z,101340.31
2023-04-18T09:48:33.919Z,101354.59
2023-04-18T09:51:06.029Z,101348.25
2023-04-18T09:53:34.797Z,101347.00
2023-04-18T09:56:03.032Z,101345.03
2023-04-18T09:58:32.982Z,101352.06
2023-04-18T10:00:59.357Z,101357.63
2023-04-18T10:03:32.716Z,101351.13
2023-04-18T10:05:59.232Z,101346.19
2023-04-18T10:08:27.148Z,101340.66
2023-04-18T10:10:55.809Z,101339.06
2023-04-18T10:13:23.803Z,101338.53
2023-04-18T10:15:52.328Z,101342.00
2023-04-18T10:18:22.729Z,101339.97
2023-04-18T10:20:49.160Z,101341.81
2023-04-18T10:23:35.470Z,101339.50
2023-04-18T10:26:03.547Z,101334.03
2023-04-18T10:28:58.684Z,101341.06
2023-04-18T10:31:27.330Z,101330.22
2023-04-18T10:36:30.131Z,101332.69
2023-04-18T10:39:02.758Z,101323.91
2023-04-18T10:41:33.717Z,101323.09
2023-04-18T10:44:08.456Z,101321.56
2023-04-18T10:46:40.279Z,101321.09
2023-04-18T10:49:15.180Z,101320.63
2023-04-18T10:51:44.348Z,101319.88
2023-04-18T10:54:25.578Z,101311.00
2023-04-18T10:56:56.532Z,101304.47
2023-04-18T10:59:24.988Z,101306.53
2023-04-18T11:01:56.895Z,101299.75
2023-04-18T11:04:24.283Z,101294.88
2023-04-18T11:06:53.115Z,101284.69
2023-04-18T11:09:19.648Z,101288.41
2023-04-18T11:11:46.201Z,101274.78
2023-04-18T11:14:12.901Z,101268.06
2023-04-18T11:16:40.031Z,101264.34
2023-04-18T11:19:21.298Z,101264.59
2023-04-18T11:21:47.730Z,101257.63
2023-04-18T11:24:21.898Z,101254.03
2023-04-18T11:26:48.285Z,101265.22
2023-04-18T11:29:17.840Z,101270.09
2023-04-18T11:31:51.343Z,101254.56
2023-04-18T11:34:17.746Z,101246.72
2023-04-18T11:36:44.205Z,101251.47
2023-04-18T11:39:10.530Z,101245.00
2023-04-18T11:41:36.898Z,101238.66
2023-04-18T11:44:05.993Z,101244.09
2023-04-18T11:46:39.080Z,101238.69
2023-04-18T11:49:05.444Z,101232.56
2023-04-18T11:51:36.098Z,101243.56
2023-04-18T11:54:02.581Z,101233.88
2023-04-18T11:56:29.051Z,101238.97
2023-04-18T11:58:56.134Z,101240.19
2023-04-18T12:01:25.033Z,101236.84
2023-04-18T12:04:05.353Z,101235.63
2023-04-18T12:06:48.158Z,101242.63
2023-04-18T12:09:15.668Z,101240.44
2023-04-18T12:11:42.386Z,101235.88
2023-04-18T12:14:21.779Z,101238.94
2023-04-18T12:16:51.604Z,101242.69
2023-04-18T12:19:20.392Z,101239.38
2023-04-18T12:22:16.626Z,101233.56
2023-04-18T12:24:43.223Z,101241.78
2023-04-18T12:27:09.718Z,101228.00
2023-04-18T12:29:36.047Z,101226.16
2023-04-18T12:32:02.558Z,101240.13
2023-04-18T12:34:29.005Z,101234.91
2023-04-18T12:36:55.620Z,101230.09
2023-04-18T12:39:21.997Z,101236.22
2023-04-18T12:41:49.746Z,101235.81
2023-04-18T12:44:16.746Z,101236.25
2023-04-18T12:46:43.176Z,101240.09
2023-04-18T12:49:09.574Z,101251.63
2023-04-18T12:51:35.961Z,101243.06
2023-04-18T12:54:02.310Z,101249.47
2023-04-18T12:56:28.628Z,101252.16
2023-04-18T12:58:54.954Z,101259.41
2023-04-18T13:01:21.904Z,101251.44
2023-04-18T13:03:53.680Z,101244.75
2023-04-18T13:06:30.647Z,101253.56
2023-04-18T13:08:57.037Z,101260.94
2023-04-18T13:11:28.263Z,101257.63
2023-04-18T13:13:54.807Z,101257.75
2023-04-18T13:16:21.398Z,101266.31
2023-04-18T13:18:47.773Z,101259.34
2023-04-18T13:21:14.076Z,101255.03
2023-04-18T13:23:41.055Z,101255.56
2023-04-18T13:26:08.560Z,101251.59
2023-04-18T13:28:34.888Z,101255.88
2023-04-18T13:31:01.195Z,101246.19
2023-04-18T13:33:27.519Z,101253.34
2023-04-18T13:35:53.892Z,101253.28
2023-04-18T13:38:22.995Z,101253.81
2023-04-18T13:40:53.668Z,101253.31
2023-04-18T13:43:24.480Z,101243.31
2023-04-18T13:45:51.018Z,101252.03
2023-04-18T13:48:17.493Z,101242.22
2023-04-18T13:50:43.880Z,101245.94
2023-04-18T13:53:10.316Z,101244.84
2023-04-18T13:55:36.757Z,101242.38
2023-04-18T13:58:03.115Z,101243.56
2023-04-18T14:00:30.198Z,101244.09
2023-04-18T14:02:57.523Z,101235.06
2023-04-18T14:05:24.012Z,101233.78
2023-04-18T14:07:50.471Z,101235.75
2023-04-18T14:10:16.971Z,101229.16
2023-04-18T14:12:43.339Z,101228.03
2023-04-18T14:15:10.190Z,101234.25
2023-04-18T14:17:36.643Z,101229.31
2023-04-18T14:20:03.325Z,101225.50
2023-04-18T14:22:29.728Z,101225.19
2023-04-18T14:24:56.243Z,101221.81
2023-04-18T14:27:22.906Z,101224.59
2023-04-18T14:29:49.321Z,101218.84
2023-04-18T14:32:15.821Z,101215.44
2023-04-18T14:34:42.691Z,101219.16
2023-04-18T14:37:09.510Z,101223.63
2023-04-18T14:39:35.940Z,101217.53
2023-04-18T14:42:02.387Z,101212.47
2023-04-18T14:44:29.528Z,101209.34
2023-04-18T14:46:56.006Z,101212.97
2023-04-18T14:49:22.402Z,101209.41
2023-04-18T14:51:48.729Z,101217.63
2023-04-18T14:54:15.217Z,101221.09
2023-04-18T14:56:41.557Z,101223.25
2023-04-18T14:59:07.878Z,101221.84
2023-04-18T15:01:34.350Z,101223.66
2023-04-18T15:04:00.852Z,101221.75
2023-04-18T15:06:28.281Z,101219.34
2023-04-18T15:08:54.676Z,101217.66
2023-04-18T15:11:21.305Z,101220.50
2023-04-18T15:13:47.684Z,101219.78
2023-04-18T15:16:14.111Z,101218.34
2023-04-18T15:18:40.441Z,101217.34
2023-04-18T15:21:06.882Z,101218.03
2023-04-18T15:23:34.041Z,101220.72
2023-04-18T15:26:00.510Z,101213.00
2023-04-18T15:28:26.845Z,101218.97
2023-04-18T15:30:53.199Z,101220.72
2023-04-18T15:33:20.396Z,101216.59
2023-04-18T15:35:49.589Z,101220.63
2023-04-18T15:38:16.017Z,101221.78
2023-04-18T15:40:43.369Z,101217.44
2023-04-18T15:43:09.711Z,101222.75
2023-04-18T15:45:36.032Z,101216.09
2023-04-18T15:48:02.417Z,101213.53
2023-04-18T15:50:29.877Z,101221.31
2023-04-18T15:52:57.247Z,101213.28
2023-04-18T15:55:23.641Z,101219.47
2023-04-18T15:57:50.149Z,101212.41
2023-04-18T16:00:17.248Z,101212.75
2023-04-18T16:02:44.979Z,101213.75
2023-04-18T16:05:15.146Z,101202.50
2023-04-18T16:07:42.417Z,101215.53
2023-04-18T16:10:10.178Z,101220.41
2023-04-18T16:12:37.671Z,101213.19
2023-04-18T16:15:08.038Z,101215.03
2023-04-18T16:17:35.364Z,101221.78
2023-04-18T16:20:01.788Z,101219.56
2023-04-18T16:22:28.178Z,101216.47
2023-04-18T16:24:54.680Z,101219.91
2023-04-18T16:27:21.224Z,101226.56
2023-04-18T16:29:47.696Z,101223.88
2023-04-18T16:32:14.077Z,101230.00
2023-04-18T16:34:40.475Z,101234.56
2023-04-18T16:37:06.774Z,101225.47
2023-04-18T16:39:33.393Z,101232.16
2023-04-18T16:41:59.757Z,101232.47
2023-04-18T16:44:26.299Z,101221.91
2023-04-18T16:46:52.741Z,101230.47
2023-04-18T16:49:20.372Z,101237.84
2023-04-18T16:51:46.666Z,101234.72
2023-04-18T16:54:14.359Z,101240.28
2023-04-18T16:56:41.332Z,101239.69
2023-04-18T16:59:09.283Z,101247.25
2023-04-18T17:01:36.065Z,101243.41
2023-04-18T17:04:02.528Z,101251.34
2023-04-18T17:06:30.896Z,101255.34
2023-04-18T17:08:58.791Z,101264.56
2023-04-18T17:11:25.261Z,101258.00
2023-04-18T17:13:51.758Z,101266.25
2023-04-18T17:16:18.237Z,101264.53
2023-04-18T17:18:44.616Z,101271.75
2023-04-18T17:21:12.478Z,101273.59
2023-04-18T17:23:41.559Z,101276.28
2023-04-18T17:26:09.107Z,101280.97
2023-04-18T17:28:36.186Z,101278.50
2023-04-18T17:31:02.738Z,101279.50
2023-04-18T17:33:29.076Z,101284.28
2023-04-18T17:35:55.387Z,101283.41
2023-04-18T17:38:21.802Z,101282.44
2023-04-18T17:40:48.271Z,101290.22
2023-04-18T17:43:14.583Z,101291.91
2023-04-18T17:45:41.402Z,101291.03
2023-04-18T17:48:07.853Z,101292.84
2023-04-18T17:50:36.767Z,101298.66
2023-04-18T17:53:03.641Z,101303.88
2023-04-18T17:55:30.117Z,101299.13
2023-04-18T17:57:57.352Z,101301.16
2023-04-18T18:00:23.832Z,101312.59
2023-04-18T18:02:50.373Z,101309.63
2023-04-18T18:05:16.978Z,101305.75
2023-04-18T18:07:47.235Z,101316.75
2023-04-18T18:10:23.118Z,101322.81
2023-04-18T18:12:49.836Z,101321.38
2023-04-18T18:15:16.220Z,101317.63
2023-04-18T18:17:42.747Z,101312.53
2023-04-18T18:20:12.429Z,101318.47
2023-04-18T18:22:38.789Z,101320.41
2023-04-18T18:25:05.493Z,101323.31
2023-04-18T18:27:31.931Z,101331.16
2023-04-18T18:29:58.276Z,101331.53
2023-04-18T18:32:24.669Z,101345.97
2023-04-18T18:34:51.082Z,101336.13
2023-04-18T18:37:17.426Z,101344.91
2023-04-18T18:39:43.779Z,101341.50
2023-04-18T18:42:10.137Z,101342.00
2023-04-18T18:44:36.593Z,101351.34
2023-04-18T18:47:02.921Z,101358.94
2023-04-18T18:49:29.257Z,101360.63
2023-04-18T18:51:56.784Z,101366.41
2023-04-18T18:54:23.445Z,101370.31
2023-04-18T18:56:49.920Z,101374.00
2023-04-18T18:59:16.497Z,101381.47
2023-04-18T19:01:43.021Z,101375.09
2023-04-18T19:04:09.653Z,101368.66
2023-04-18T19:06:36.257Z,101380.72
2023-04-18T19:09:02.736Z,101379.88
2023-04-18T19:11:29.646Z,101386.09
2023-04-18T19:13:55.983Z,101380.84
2023-04-18T19:16:22.404Z,101389.78
2023-04-18T19:18:50.392Z,101388.44
2023-04-18T19:21:17.353Z,101399.06
2023-04-18T19:23:43.843Z,101389.28
2023-04-18T19:26:10.189Z,101396.75
2023-04-18T19:28:36.540Z,101386.47
2023-04-18T19:31:03.024Z,101398.81
2023-04-18T19:33:30.372Z,101393.94
2023-04-18T19:35:56.901Z,101408.00
2023-04-18T19:38:23.273Z,101402.16
2023-04-18T19:40:52.181Z,101399.09
2023-04-18T19:43:18.520Z,101397.13
2023-04-18T19:45:45.079Z,101402.50
2023-04-18T19:48:11.869Z,101399.09
2023-04-18T19:50:42.122Z,101403.75
2023-04-18T19:53:08.882Z,101408.13
2023-04-18T19:55:35.365Z,101400.44
2023-04-18T19:58:01.885Z,101402.13
2023-04-18T20:00:28.454Z,101404.69
2023-04-18T20:02:55.045Z,101405.81
2023-04-18T20:05:21.608Z,101409.13
2023-04-18T20:07:48.256Z,101401.53
2023-04-18T20:10:14.669Z,101406.78
2023-04-18T20:12:41.080Z,101407.75
2023-04-18T20:15:08.200Z,101412.28
2023-04-18T20:17:34.740Z,101406.66
2023-04-18T20:20:01.407Z,101415.97
2023-04-18T20:22:27.833Z,101407.38
2023-04-18T20:24:57.039Z,101411.66
2023-04-18T20:27:23.513Z,101408.97
2023-04-18T20:29:50.043Z,101421.56
2023-04-18T20:32:16.518Z,101412.50
2023-04-18T20:34:43.279Z,101415.31
2023-04-18T20:37:09.978Z,101416.69
2023-04-18T20:39:37.904Z,101420.09
2023-04-18T20:42:04.685Z,101418.53
2023-04-18T20:44:33.320Z,101423.03
2023-04-18T20:46:59.702Z,101414.97
2023-04-18T20:49:26.148Z,101425.22
2023-04-18T20:51:52.595Z,101422.66
2023-04-18T20:54:18.958Z,101432.78
2023-04-18T20:56:45.376Z,101423.50
2023-04-18T20:59:11.728Z,101421.91
2023-04-18T21:01:38.083Z,101428.25
2023-04-18T21:04:05.154Z,101435.59
2023-04-18T21:06:32.705Z,101433.88
2023-04-18T21:08:59.035Z,101428.50
2023-04-18T21:11:25.378Z,101428.38
2023-04-18T21:13:51.682Z,101426.78
2023-04-18T21:16:18.201Z,101427.06
2023-04-18T21:18:44.596Z,101432.53
2023-04-18T21:21:11.688Z,101428.38
2023-04-18T21:23:44.195Z,101419.94
2023-04-18T21:26:12.906Z,101422.75
2023-04-18T21:28:59.296Z,101425.56
2023-04-18T21:31:26.659Z,101428.13
2023-04-18T21:33:57.301Z,101425.47
2023-04-18T21:36:26.845Z,101429.09
2023-04-18T21:38:54.523Z,101431.91
2023-04-18T21:41:21.320Z,101431.91
2023-04-18T21:43:47.873Z,101429.56
2023-04-18T21:46:14.912Z,101430.66
2023-04-18T21:48:42.774Z,101430.91
2023-04-18T21:51:10.451Z,101422.75
2023-04-18T21:53:38.458Z,101424.31
2023-04-18T21:56:05.597Z,101421.88
2023-04-18T21:58:32.248Z,101428.13
2023-04-18T22:00:58.915Z,101428.72
2023-04-18T22:03:26.675Z,101424.19
2023-04-18T22:05:53.244Z,101423.94
2023-04-18T22:08:20.190Z,101422.00
2023-04-18T22:10:49.625Z,101419.44
2023-04-18T22:13:16.554Z,101415.41
2023-04-18T22:15:42.923Z,101429.94
2023-04-18T22:18:09.316Z,101423.44
2023-04-18T22:20:38.851Z,101417.09
2023-04-18T22:23:06.874Z,101424.16
2023-04-18T22:25:33.777Z,101416.22
2023-04-18T22:28:01.606Z,101417.16
2023-04-18T22:30:28.379Z,101405.69
2023-04-18T22:32:54.779Z,101419.25
2023-04-18T22:35:21.780Z,101412.41
2023-04-18T22:37:48.132Z,101410.94
2023-04-18T22:40:15.539Z,101410.06
2023-04-18T22:42:42.098Z,101411.38
2023-04-18T22:45:08.978Z,101406.53
2023-04-18T22:47:35.374Z,101412.47
2023-04-18T22:50:01.870Z,101403.56
2023-04-18T22:52:29.186Z,101413.56
2023-04-18T22:54:55.686Z,101409.63
2023-04-18T22:57:22.059Z,101397.78
2023-04-18T22:59:48.359Z,101404.41
2023-04-18T23:02:14.888Z,101409.75
2023-04-18T23:04:42.288Z,101409.59
2023-04-18T23:07:09.029Z,101410.56
2023-04-18T23:09:35.304Z,101412.00
2023-04-18T23:12:02.320Z,101412.97
2023-04-18T23:14:29.388Z,101406.13
2023-04-18T23:16:55.765Z,101408.78
2023-04-18T23:19:22.154Z,101413.06
2023-04-18T23:21:49.721Z,101404.63
2023-04-18T23:24:16.420Z,101401.81
2023-04-18T23:26:42.907Z,101403.97
2023-04-18T23:29:09.268Z,101418.22
2023-04-18T23:31:35.724Z,101411.59
2023-04-18T23:34:02.142Z,101409.16
2023-04-18T23:36:28.512Z,101417.66
2023-04-18T23:38:54.880Z,101405.75
2023-04-18T23:41:21.218Z,101419.66
2023-04-18T23:43:47.586Z,101410.88
2023-04-18T23:46:14.067Z,101411.72
2023-04-18T23:48:40.513Z,101411.59
2023-04-18T23:51:06.943Z,101408.91
2023-04-18T23:53:33.307Z,101415.06
2023-04-18T23:55:59.621Z,101417.38
2023-04-18T23:58:26.526Z,101415.16
